createdAt,value
2018-12-13T00:00:30.349Z,100728.94
2018-12-13T00:03:05.600Z,100730.59
2018-12-13T00:05:39.725Z,100729.55
2018-12-13T00:08:14.477Z,100723.91
2018-12-13T00:10:48.053Z,100718.99
2018-12-13T00:13:21.046Z,100715.27
2018-12-13T00:15:54.663Z,100705.58
2018-12-13T00:18:32.295Z,100699.05
2018-12-13T00:21:05.227Z,100697.23
2018-12-13T00:23:38.075Z,100691.73
2018-12-13T00:26:13.901Z,100689.93
2018-12-13T00:28:48.756Z,100683.63
2018-12-13T00:31:24.202Z,100683.78
2018-12-13T00:34:03.811Z,100686.61
2018-12-13T00:36:39.788Z,100683.73
2018-12-13T00:39:23.641Z,100681.13
2018-12-13T00:41:58.949Z,100681.38
2018-12-13T00:44:32.808Z,100681.80
2018-12-13T00:47:08.708Z,100685.91
2018-12-13T00:49:47.457Z,100684.50
2018-12-13T00:52:20.484Z,100686.52
2018-12-13T00:54:56.760Z,100688.45
2018-12-13T00:57:30.916Z,100686.19
2018-12-13T01:00:06.262Z,100688.17
2018-12-13T01:02:39.484Z,100686.53
2018-12-13T01:05:15.408Z,100687.63
2018-12-13T01:07:49.451Z,100678.08
2018-12-13T01:10:23.440Z,100676.55
2018-12-13T01:12:57.756Z,100671.14
2018-12-13T01:15:34.265Z,100669.70
2018-12-13T01:18:09.017Z,100671.41
2018-12-13T01:20:43.377Z,100669.18
2018-12-13T01:23:18.286Z,100666.19
2018-12-13T01:25:53.746Z,100662.58
2018-12-13T01:28:28.618Z,100667.72
2018-12-13T01:31:02.658Z,100668.61
2018-12-13T01:33:45.305Z,100664.34
2018-12-13T01:36:20.103Z,100665.56
2018-12-13T01:38:54.682Z,100671.89
2018-12-13T01:41:28.762Z,100666.11
2018-12-13T01:44:02.937Z,100667.97
2018-12-13T01:46:36.727Z,100664.59
2018-12-13T01:49:13.780Z,100666.31
2018-12-13T01:51:47.547Z,100665.26
2018-12-13T01:54:20.445Z,100656.47
2018-12-13T01:56:57.620Z,100658.36
2018-12-13T01:59:34.039Z,100660.63
2018-12-13T02:02:07.718Z,100659.90
2018-12-13T02:04:46.381Z,100668.45
2018-12-13T02:07:20.788Z,100664.81
2018-12-13T02:09:58.444Z,100658.75
2018-12-13T02:12:34.104Z,100657.63
2018-12-13T02:15:25.590Z,100660.73
2018-12-13T02:17:59.807Z,100668.96
2018-12-13T02:20:38.855Z,100663.65
2018-12-13T02:23:14.533Z,100661.05
2018-12-13T02:25:50.073Z,100652.14
2018-12-13T02:28:26.066Z,100647.88
2018-12-13T02:31:03.340Z,100648.02
2018-12-13T02:33:38.164Z,100643.37
2018-12-13T02:36:14.384Z,100639.58
2018-12-13T02:38:47.791Z,100632.64
2018-12-13T02:41:22.521Z,100629.09
2018-12-13T02:43:57.327Z,100625.10
2018-12-13T02:46:32.520Z,100626.46
2018-12-13T02:49:10.644Z,100621.23
2018-12-13T02:51:47.238Z,100618.00
2018-12-13T02:54:20.631Z,100614.02
2018-12-13T02:56:54.890Z,100610.79
2018-12-13T02:59:27.865Z,100616.19
2018-12-13T03:02:00.956Z,100609.30
2018-12-13T03:04:34.200Z,100599.08
2018-12-13T03:07:13.716Z,100600.83
2018-12-13T03:09:48.009Z,100595.97
2018-12-13T03:12:24.435Z,100592.72
2018-12-13T03:15:04.432Z,100596.70
2018-12-13T03:17:38.574Z,100600.45
2018-12-13T03:20:15.370Z,100599.04
2018-12-13T03:22:50.382Z,100597.59
2018-12-13T03:25:25.274Z,100595.27
2018-12-13T03:27:59.631Z,100594.56
2018-12-13T03:30:34.338Z,100590.84
2018-12-13T03:33:09.158Z,100593.50
2018-12-13T03:35:43.608Z,100586.42
2018-12-13T03:38:17.451Z,100587.78
2018-12-13T03:40:51.308Z,100584.85
2018-12-13T03:43:25.618Z,100575.82
2018-12-13T03:45:58.714Z,100575.00
2018-12-13T03:48:31.867Z,100574.58
2018-12-13T03:51:05.218Z,100578.16
2018-12-13T03:53:38.151Z,100576.20
2018-12-13T03:56:11.021Z,100573.41
2018-12-13T03:58:44.525Z,100573.18
2018-12-13T04:01:17.365Z,100571.03
2018-12-13T04:03:50.619Z,100571.70
2018-12-13T04:06:23.969Z,100561.63
2018-12-13T04:08:56.865Z,100564.34
2018-12-13T04:11:30.036Z,100562.59
2018-12-13T04:14:03.536Z,100563.62
2018-12-13T04:16:36.536Z,100563.47
2018-12-13T04:19:09.426Z,100557.25
2018-12-13T04:21:42.898Z,100561.95
2018-12-13T04:24:16.167Z,100562.13
2018-12-13T04:26:50.035Z,100557.30
2018-12-13T04:29:23.600Z,100554.86
2018-12-13T04:31:56.908Z,100554.33
2018-12-13T04:34:29.914Z,100555.05
2018-12-13T04:37:03.462Z,100555.47
2018-12-13T04:39:36.645Z,100545.52
2018-12-13T04:42:09.603Z,100542.98
2018-12-13T04:44:43.148Z,100544.60
2018-12-13T04:47:16.145Z,100541.38
2018-12-13T04:49:49.651Z,100536.42
2018-12-13T04:52:23.173Z,100541.32
2018-12-13T04:54:56.444Z,100547.06
2018-12-13T04:57:29.294Z,100541.89
2018-12-13T05:00:06.139Z,100536.06
2018-12-13T05:02:39.917Z,100533.59
2018-12-13T05:05:13.068Z,100532.05
2018-12-13T05:07:46.803Z,100535.27
2018-12-13T05:10:42.192Z,100534.78
2018-12-13T05:13:15.635Z,100531.36
2018-12-13T05:15:48.844Z,100530.34
2018-12-13T05:18:21.771Z,100529.06
2018-12-13T05:21:06.713Z,100526.30
2018-12-13T05:23:39.773Z,100525.05
2018-12-13T05:26:12.934Z,100515.20
2018-12-13T05:28:45.907Z,100513.40
2018-12-13T05:31:20.490Z,100512.29
2018-12-13T05:33:53.713Z,100511.48
2018-12-13T05:36:26.684Z,100511.69
2018-12-13T05:39:00.573Z,100511.02
2018-12-13T05:41:33.964Z,100511.64
2018-12-13T05:44:07.304Z,100512.64
2018-12-13T05:46:41.924Z,100508.59
2018-12-13T05:49:14.856Z,100512.95
2018-12-13T05:51:47.862Z,100514.16
2018-12-13T05:54:21.172Z,100517.29
2018-12-13T05:56:54.225Z,100520.20
2018-12-13T05:59:27.171Z,100519.98
2018-12-13T06:02:00.248Z,100519.77
2018-12-13T06:04:33.172Z,100519.34
2018-12-13T06:07:06.195Z,100527.88
2018-12-13T06:09:41.777Z,100522.14
2018-12-13T06:12:16.416Z,100523.82
2018-12-13T06:14:51.005Z,100520.91
2018-12-13T06:17:24.881Z,100521.17
2018-12-13T06:19:58.418Z,100521.66
2018-12-13T06:22:31.777Z,100523.36
2018-12-13T06:25:05.883Z,100528.05
2018-12-13T06:27:40.885Z,100525.16
2018-12-13T06:30:15.389Z,100526.75
2018-12-13T06:32:49.091Z,100522.56
2018-12-13T06:35:22.163Z,100520.53
2018-12-13T06:38:01.087Z,100524.83
2018-12-13T06:40:34.677Z,100531.58
2018-12-13T06:43:07.961Z,100524.95
2018-12-13T06:45:40.854Z,100527.27
2018-12-13T06:48:13.828Z,100526.58
2018-12-13T06:50:48.389Z,100523.79
2018-12-13T06:53:25.311Z,100521.75
2018-12-13T06:55:59.337Z,100520.50
2018-12-13T06:58:32.564Z,100516.26
2018-12-13T07:01:05.795Z,100522.63
2018-12-13T07:03:40.651Z,100512.06
2018-12-13T07:06:15.562Z,100510.44
2018-12-13T07:08:50.105Z,100501.34
2018-12-13T07:11:22.981Z,100508.89
2018-12-13T07:13:56.942Z,100507.59
2018-12-13T07:16:30.381Z,100518.03
2018-12-13T07:19:06.585Z,100521.99
2018-12-13T07:21:39.696Z,100515.75
2018-12-13T07:24:13.952Z,100517.77
2018-12-13T07:26:48.388Z,100516.39
2018-12-13T07:29:22.244Z,100516.98
2018-12-13T07:31:55.713Z,100521.88
2018-12-13T07:34:28.723Z,100518.63
2018-12-13T07:37:02.326Z,100527.03
2018-12-13T07:39:37.506Z,100530.95
2018-12-13T07:42:10.516Z,100534.12
2018-12-13T07:44:44.156Z,100538.67
2018-12-13T07:47:19.302Z,100539.34
2018-12-13T07:49:52.899Z,100540.92
2018-12-13T07:52:30.473Z,100548.11
2018-12-13T07:55:03.892Z,100541.87
2018-12-13T07:57:37.152Z,100540.39
2018-12-13T08:00:11.008Z,100545.05
2018-12-13T08:02:47.045Z,100544.28
2018-12-13T08:05:21.262Z,100545.09
2018-12-13T08:07:58.583Z,100544.06
2018-12-13T08:10:32.384Z,100542.37
2018-12-13T08:13:05.688Z,100545.27
2018-12-13T08:15:40.380Z,100548.30
2018-12-13T08:18:13.454Z,100548.33
2018-12-13T08:20:46.778Z,100548.38
2018-12-13T08:23:20.915Z,100545.09
2018-12-13T08:25:54.708Z,100541.19
2018-12-13T08:28:29.620Z,100550.86
2018-12-13T08:31:04.963Z,100551.51
2018-12-13T08:33:38.516Z,100553.62
2018-12-13T08:36:11.938Z,100547.48
2018-12-13T08:38:45.315Z,100549.84
2018-12-13T08:41:19.407Z,100552.56
2018-12-13T08:43:52.888Z,100538.03
2018-12-13T08:46:26.568Z,100543.34
2018-12-13T08:48:59.737Z,100544.38
2018-12-13T08:51:33.348Z,100549.09
2018-12-13T08:54:06.622Z,100545.09
2018-12-13T08:56:39.745Z,100545.36
2018-12-13T08:59:13.388Z,100546.78
2018-12-13T09:01:46.445Z,100544.78
2018-12-13T09:04:19.143Z,100551.03
2018-12-13T09:06:57.670Z,100546.22
2018-12-13T09:09:32.475Z,100541.14
2018-12-13T09:12:06.461Z,100540.44
2018-12-13T09:14:44.505Z,100537.63
2018-12-13T09:17:20.010Z,100540.33
2018-12-13T09:19:55.026Z,100535.92
2018-12-13T09:22:29.451Z,100544.30
2018-12-13T09:25:05.341Z,100537.72
2018-12-13T09:27:39.087Z,100537.27
2018-12-13T09:30:13.119Z,100536.57
2018-12-13T09:32:46.117Z,100535.21
2018-12-13T09:35:18.745Z,100538.05
2018-12-13T09:37:53.138Z,100539.23
2018-12-13T09:40:26.977Z,100540.29
2018-12-13T09:42:59.725Z,100541.89
2018-12-13T09:45:32.486Z,100543.09
2018-12-13T09:48:06.478Z,100543.20
2018-12-13T09:50:41.473Z,100539.95
2018-12-13T09:53:16.420Z,100543.86
2018-12-13T09:55:49.277Z,100543.91
2018-12-13T09:58:23.560Z,100543.24
2018-12-13T10:00:57.144Z,100542.26
2018-12-13T10:03:40.756Z,100530.86
2018-12-13T10:06:14.211Z,100528.63
2018-12-13T10:08:46.911Z,100529.41
2018-12-13T10:11:21.720Z,100521.55
2018-12-13T10:13:55.640Z,100519.09
2018-12-13T10:16:28.445Z,100515.50
2018-12-13T10:19:02.111Z,100517.28
2018-12-13T10:21:34.792Z,100510.76
2018-12-13T10:24:08.029Z,100509.12
2018-12-13T10:26:41.412Z,100496.86
2018-12-13T10:29:15.629Z,100504.66
2018-12-13T10:31:50.048Z,100491.31
2018-12-13T10:34:25.697Z,100494.34
2018-12-13T10:37:01.886Z,100493.03
2018-12-13T10:39:35.408Z,100500.21
2018-12-13T10:42:08.746Z,100495.85
2018-12-13T10:44:42.273Z,100496.03
2018-12-13T10:47:15.008Z,100492.77
2018-12-13T10:49:48.980Z,100485.20
2018-12-13T10:52:21.777Z,100486.64
2018-12-13T10:54:54.834Z,100488.67
2018-12-13T10:57:27.649Z,100482.13
2018-12-13T11:00:03.454Z,100483.86
2018-12-13T11:03:34.675Z,100477.94
2018-12-13T11:06:09.814Z,100475.31
2018-12-13T11:08:46.703Z,100475.22
2018-12-13T11:11:22.121Z,100466.94
2018-12-13T11:13:55.792Z,100465.80
2018-12-13T11:16:33.214Z,100459.56
2018-12-13T11:19:07.398Z,100453.91
2018-12-13T11:21:40.232Z,100447.89
2018-12-13T11:24:13.963Z,100450.28
2018-12-13T11:26:48.084Z,100446.75
2018-12-13T11:29:55.431Z,100448.73
2018-12-13T11:32:28.162Z,100442.84
2018-12-13T11:35:05.208Z,100443.24
2018-12-13T11:37:39.679Z,100426.43
2018-12-13T11:40:13.096Z,100428.85
2018-12-13T11:42:50.816Z,100433.83
2018-12-13T11:45:25.536Z,100431.95
2018-12-13T11:47:59.374Z,100432.34
2018-12-13T11:50:33.064Z,100424.68
2018-12-13T11:53:06.376Z,100429.97
2018-12-13T11:55:40.519Z,100425.72
2018-12-13T11:58:17.481Z,100423.73
2018-12-13T12:00:50.124Z,100427.89
2018-12-13T12:03:23.026Z,100425.30
2018-12-13T12:05:57.437Z,100421.48
2018-12-13T12:08:30.660Z,100423.75
2018-12-13T12:11:03.349Z,100415.46
2018-12-13T12:13:39.488Z,100404.86
2018-12-13T12:16:11.974Z,100403.65
2018-12-13T12:18:44.600Z,100405.80
2018-12-13T12:21:20.738Z,100399.24
2018-12-13T12:23:53.323Z,100395.47
2018-12-13T12:26:27.202Z,100392.41
2018-12-13T12:29:00.673Z,100390.38
2018-12-13T12:31:33.940Z,100387.55
2018-12-13T12:34:10.705Z,100380.28
2018-12-13T12:36:46.348Z,100385.91
2018-12-13T12:39:21.077Z,100381.92
2018-12-13T12:41:53.831Z,100381.34
2018-12-13T12:44:33.536Z,100375.68
2018-12-13T12:47:07.486Z,100376.48
2018-12-13T12:49:40.648Z,100370.55
2018-12-13T12:52:15.248Z,100363.18
2018-12-13T12:54:50.051Z,100369.49
2018-12-13T12:57:29.231Z,100369.92
2018-12-13T13:00:07.049Z,100357.97
2018-12-13T13:02:40.992Z,100358.83
2018-12-13T13:05:18.726Z,100364.11
2018-12-13T13:07:53.095Z,100357.16
2018-12-13T13:10:25.871Z,100363.70
2018-12-13T13:12:58.657Z,100361.84
2018-12-13T13:15:32.810Z,100362.91
2018-12-13T13:18:06.459Z,100354.16
2018-12-13T13:20:41.023Z,100358.16
2018-12-13T13:23:16.659Z,100356.03
2018-12-13T13:25:50.201Z,100356.45
2018-12-13T13:28:22.938Z,100352.05
2018-12-13T13:30:56.173Z,100348.52
2018-12-13T13:33:30.463Z,100345.51
2018-12-13T13:36:03.251Z,100345.66
2018-12-13T13:38:37.969Z,100342.33
2018-12-13T13:41:14.384Z,100346.96
2018-12-13T13:43:47.561Z,100340.62
2018-12-13T13:46:25.349Z,100336.83
2018-12-13T13:48:58.266Z,100339.63
2018-12-13T13:51:32.005Z,100337.07
2018-12-13T13:54:05.871Z,100340.95
2018-12-13T13:56:39.268Z,100330.07
2018-12-13T13:59:15.461Z,100341.83
2018-12-13T14:01:49.179Z,100337.30
2018-12-13T14:04:23.614Z,100338.73
2018-12-13T14:06:57.842Z,100341.73
2018-12-13T14:09:30.688Z,100336.77
2018-12-13T14:12:05.619Z,100338.30
2018-12-13T14:14:40.323Z,100343.23
2018-12-13T14:17:15.660Z,100346.50
2018-12-13T14:19:49.727Z,100348.83
2018-12-13T14:22:24.615Z,100353.19
2018-12-13T14:24:57.410Z,100350.41
2018-12-13T14:27:33.550Z,100351.48
2018-12-13T14:30:09.335Z,100352.13
2018-12-13T14:32:42.553Z,100354.74
2018-12-13T14:35:17.724Z,100367.27
2018-12-13T14:37:50.320Z,100362.08
2018-12-13T14:40:23.058Z,100363.48
2018-12-13T14:42:58.590Z,100359.92
2018-12-13T14:45:32.634Z,100362.95
2018-12-13T14:48:09.101Z,100365.98
2018-12-13T14:50:43.302Z,100373.27
2018-12-13T14:53:18.818Z,100377.55
2018-12-13T14:55:52.837Z,100381.77
2018-12-13T14:58:26.070Z,100379.31
2018-12-13T15:00:59.453Z,100378.84
2018-12-13T15:03:33.919Z,100380.88
2018-12-13T15:06:07.351Z,100382.91
2018-12-13T15:08:40.864Z,100375.41
2018-12-13T15:11:14.681Z,100374.59
2018-12-13T15:13:48.844Z,100387.34
2018-12-13T15:16:23.620Z,100387.51
2018-12-13T15:18:57.836Z,100393.46
2018-12-13T15:21:32.240Z,100382.41
2018-12-13T15:24:05.700Z,100382.92
2018-12-13T15:26:41.662Z,100389.48
2018-12-13T15:29:15.964Z,100383.66
2018-12-13T15:31:49.865Z,100387.95
2018-12-13T15:34:23.644Z,100389.47
2018-12-13T15:36:56.846Z,100394.71
2018-12-13T15:39:29.605Z,100392.16
2018-12-13T15:42:10.096Z,100393.02
2018-12-13T15:44:46.494Z,100389.14
2018-12-13T15:47:19.951Z,100387.73
2018-12-13T15:49:58.382Z,100389.10
2018-12-13T15:52:36.078Z,100396.41
2018-12-13T15:55:09.197Z,100392.41
2018-12-13T15:57:43.467Z,100394.34
2018-12-13T16:00:20.864Z,100398.41
2018-12-13T16:02:55.926Z,100404.92
2018-12-13T16:05:30.516Z,100401.52
2018-12-13T16:08:04.343Z,100405.38
2018-12-13T16:10:39.385Z,100407.63
2018-12-13T16:13:12.617Z,100410.08
2018-12-13T16:15:45.277Z,100410.22
2018-12-13T16:18:22.352Z,100410.51
2018-12-13T16:20:58.087Z,100413.41
2018-12-13T16:23:31.502Z,100411.34
2018-12-13T16:26:06.296Z,100398.52
2018-12-13T16:28:40.724Z,100411.77
2018-12-13T16:31:15.045Z,100403.59
2018-12-13T16:33:49.216Z,100401.33
2018-12-13T16:36:22.373Z,100409.18
2018-12-13T16:38:57.294Z,100406.52
2018-12-13T16:41:32.573Z,100412.41
2018-12-13T16:44:07.759Z,100402.95
2018-12-13T16:46:41.547Z,100402.84
2018-12-13T16:49:14.333Z,100412.23
2018-12-13T16:51:47.393Z,100410.47
2018-12-13T16:54:20.013Z,100410.41
2018-12-13T16:56:53.652Z,100405.16
2018-12-13T16:59:27.447Z,100408.36
2018-12-13T17:02:02.329Z,100409.55
2018-12-13T17:04:37.457Z,100408.65
2018-12-13T17:07:11.919Z,100412.34
2018-12-13T17:09:47.029Z,100414.57
2018-12-13T17:12:24.206Z,100410.28
2018-12-13T17:14:58.288Z,100408.93
2018-12-13T17:17:31.165Z,100404.91
2018-12-13T17:20:06.480Z,100405.99
2018-12-13T17:22:47.414Z,100411.67
2018-12-13T17:25:20.031Z,100413.57
2018-12-13T17:27:56.577Z,100413.76
2018-12-13T17:30:30.791Z,100414.81
2018-12-13T17:36:15.687Z,100412.07
2018-12-13T17:38:48.391Z,100416.89
2018-12-13T17:41:21.079Z,100420.13
2018-12-13T17:43:56.863Z,100417.45
2018-12-13T17:46:31.114Z,100423.83
2018-12-13T17:49:06.887Z,100418.77
2018-12-13T17:51:42.872Z,100420.23
2018-12-13T17:54:17.399Z,100423.88
2018-12-13T17:56:51.777Z,100424.50
2018-12-13T17:59:25.998Z,100424.52
2018-12-13T18:02:02.152Z,100426.84
2018-12-13T18:04:36.397Z,100428.62
2018-12-13T18:07:13.931Z,100427.61
2018-12-13T18:09:46.654Z,100431.55
2018-12-13T18:12:19.258Z,100430.91
2018-12-13T18:14:52.753Z,100431.57
2018-12-13T18:17:26.378Z,100431.09
2018-12-13T18:19:59.435Z,100426.22
2018-12-13T18:22:34.307Z,100421.23
2018-12-13T18:25:08.134Z,100424.53
2018-12-13T18:27:48.790Z,100428.13
2018-12-13T18:30:24.623Z,100418.52
2018-12-13T18:33:03.383Z,100422.23
2018-12-13T18:35:37.095Z,100419.50
2018-12-13T18:38:14.187Z,100415.92
2018-12-13T18:40:49.504Z,100415.89
2018-12-13T18:43:23.294Z,100414.22
2018-12-13T18:45:59.306Z,100409.75
2018-12-13T18:48:33.704Z,100403.70
2018-12-13T18:51:08.746Z,100403.81
2018-12-13T18:53:42.844Z,100411.07
2018-12-13T18:56:17.417Z,100413.33
2018-12-13T18:58:55.380Z,100409.98
2018-12-13T19:01:46.715Z,100410.69
2018-12-13T19:04:30.842Z,100415.51
2018-12-13T19:07:07.513Z,100420.52
2018-12-13T19:09:53.359Z,100417.73
2018-12-13T19:12:38.916Z,100416.55
2018-12-13T19:15:33.781Z,100423.69
2018-12-13T19:18:10.760Z,100422.92
2018-12-13T19:20:49.375Z,100429.85
2018-12-13T19:23:22.337Z,100429.16
2018-12-13T19:25:58.148Z,100432.39
2018-12-13T19:28:32.728Z,100431.67
2018-12-13T19:31:08.718Z,100432.47
2018-12-13T19:33:47.974Z,100433.59
2018-12-13T19:36:21.803Z,100434.61
2018-12-13T19:38:57.489Z,100432.50
2018-12-13T19:41:49.004Z,100436.97
2018-12-13T19:44:23.913Z,100440.07
2018-12-13T19:46:58.670Z,100438.59
2018-12-13T19:49:41.247Z,100442.27
2018-12-13T19:52:14.070Z,100444.88
2018-12-13T19:54:48.622Z,100448.58
2018-12-13T19:57:23.834Z,100446.11
2018-12-13T19:59:58.784Z,100450.91
2018-12-13T20:02:33.801Z,100453.08
2018-12-13T20:05:09.269Z,100453.65
2018-12-13T20:07:42.959Z,100451.00
2018-12-13T20:10:19.491Z,100453.22
2018-12-13T20:12:52.919Z,100452.83
2018-12-13T20:15:26.381Z,100458.08
2018-12-13T20:18:02.994Z,100455.66
2018-12-13T20:20:37.219Z,100458.25
2018-12-13T20:23:10.529Z,100455.58
2018-12-13T20:25:49.264Z,100460.78
2018-12-13T20:28:22.999Z,100451.66
2018-12-13T20:30:58.063Z,100460.32
2018-12-13T20:33:32.871Z,100457.60
2018-12-13T20:36:08.853Z,100457.33
2018-12-13T20:38:42.886Z,100459.01
2018-12-13T20:41:16.723Z,100461.48
2018-12-13T20:43:52.934Z,100466.31
2018-12-13T20:46:27.171Z,100468.20
2018-12-13T20:49:05.345Z,100473.14
2018-12-13T20:51:39.112Z,100475.91
2018-12-13T20:54:12.053Z,100478.49
2018-12-13T20:56:45.934Z,100480.98
2018-12-13T20:59:20.319Z,100483.39
2018-12-13T21:01:53.150Z,100486.91
2018-12-13T21:04:27.831Z,100489.28
2018-12-13T21:07:06.020Z,100494.00
2018-12-13T21:09:39.099Z,100498.42
2018-12-13T21:12:17.093Z,100495.04
2018-12-13T21:14:52.656Z,100498.68
2018-12-13T21:17:27.277Z,100499.56
2018-12-13T21:20:01.270Z,100501.88
2018-12-13T21:22:36.464Z,100502.67
2018-12-13T21:25:10.746Z,100502.73
2018-12-13T21:27:46.325Z,100506.81
2018-12-13T21:30:19.413Z,100502.86
2018-12-13T21:32:52.211Z,100498.75
2018-12-13T21:35:27.361Z,100496.79
2018-12-13T21:38:00.198Z,100495.86
2018-12-13T21:40:35.250Z,100496.41
2018-12-13T21:43:10.310Z,100498.73
2018-12-13T21:45:44.031Z,100496.39
2018-12-13T21:51:04.626Z,100482.89
2018-12-13T21:53:42.453Z,100480.82
2018-12-13T21:56:15.668Z,100481.94
2018-12-13T21:58:48.872Z,100486.54
2018-12-13T22:01:29.448Z,100490.16
2018-12-13T22:04:03.746Z,100492.87
2018-12-13T22:06:38.049Z,100496.62
2018-12-13T22:09:14.163Z,100493.30
2018-12-13T22:11:47.039Z,100489.64
2018-12-13T22:14:21.171Z,100488.16
2018-12-13T22:16:56.424Z,100486.55
2018-12-13T22:19:30.144Z,100489.69
2018-12-13T22:22:03.753Z,100492.21
2018-12-13T22:24:37.057Z,100491.25
2018-12-13T22:27:11.677Z,100485.72
2018-12-13T22:29:46.001Z,100485.45
2018-12-13T22:32:19.547Z,100496.92
2018-12-13T22:34:52.390Z,100505.24
2018-12-13T22:37:25.247Z,100507.86
2018-12-13T22:39:58.813Z,100510.05
2018-12-13T22:42:31.573Z,100509.34
2018-12-13T22:45:13.282Z,100500.41
2018-12-13T22:47:46.966Z,100497.14
2018-12-13T22:50:19.821Z,100499.52
2018-12-13T22:52:52.776Z,100495.63
2018-12-13T22:55:25.485Z,100491.44
2018-12-13T22:57:58.079Z,100486.30
2018-12-13T23:00:31.301Z,100483.01
2018-12-13T23:03:08.550Z,100478.59
2018-12-13T23:05:41.376Z,100480.14
2018-12-13T23:08:15.425Z,100481.30
2018-12-13T23:10:48.313Z,100483.55
2018-12-13T23:13:20.949Z,100483.40
2018-12-13T23:15:54.810Z,100484.79
2018-12-13T23:18:28.552Z,100492.23
2018-12-13T23:21:01.358Z,100491.05
2018-12-13T23:23:38.684Z,100497.44
2018-12-13T23:26:12.875Z,100498.02
2018-12-13T23:28:46.214Z,100496.11
2018-12-13T23:31:21.404Z,100495.98
2018-12-13T23:33:58.431Z,100493.58
2018-12-13T23:36:31.210Z,100488.83
2018-12-13T23:39:04.769Z,100488.06
2018-12-13T23:41:39.403Z,100485.66
2018-12-13T23:44:19.556Z,100482.11
2018-12-13T23:46:54.021Z,100481.45
2018-12-13T23:49:27.815Z,100470.85
2018-12-13T23:52:00.411Z,100476.36
2018-12-13T23:54:33.563Z,100471.67
2018-12-13T23:57:07.025Z,100475.88
2018-12-13T23:59:42.380Z,100479.16
